createdAt,value
2018-02-10T00:01:10.411Z,96490.92
2018-02-10T00:02:49.060Z,96472.30
2018-02-10T00:04:26.755Z,96456.63
2018-02-10T00:06:03.724Z,96427.78
2018-02-10T00:07:40.276Z,96458.87
2018-02-10T00:09:17.522Z,96408.36
2018-02-10T00:10:54.911Z,96390.67
2018-02-10T00:12:31.255Z,96376.02
2018-02-10T00:14:08.448Z,96377.33
2018-02-10T00:15:45.695Z,96367.84
2018-02-10T00:17:22.425Z,96316.95
2018-02-10T00:18:58.956Z,96273.72
2018-02-10T00:20:35.421Z,96257.44
2018-02-10T00:22:22.623Z,96241.01
2018-02-10T00:24:00.323Z,96190.45
2018-02-10T00:25:37.689Z,96186.55
2018-02-10T00:27:15.896Z,96177.52
2018-02-10T00:28:53.238Z,96189.14
2018-02-10T00:30:29.881Z,96277.23
2018-02-10T00:32:06.395Z,96284.05
2018-02-10T00:33:43.139Z,96285.93
2018-02-10T00:35:19.591Z,96291.39
2018-02-10T00:36:57.151Z,96267.27
2018-02-10T00:38:34.440Z,96282.37
2018-02-10T00:40:11.765Z,96298.38
2018-02-10T00:41:52.449Z,96274.22
2018-02-10T00:43:29.231Z,96269.89
2018-02-10T00:45:06.375Z,96291.53
2018-02-10T00:46:43.148Z,96295.33
2018-02-10T00:48:19.897Z,96308.32
2018-02-10T00:49:58.454Z,96297.45
2018-02-10T00:51:34.840Z,96297.92
2018-02-10T00:53:12.150Z,96316.06
2018-02-10T00:54:48.600Z,96325.18
2018-02-10T00:56:28.870Z,96301.78
2018-02-10T00:58:06.736Z,96337.21
2018-02-10T00:59:43.748Z,96291.47
2018-02-10T01:01:20.659Z,96348.89
2018-02-10T01:02:57.164Z,96426.51
2018-02-10T01:04:34.572Z,96439.13
2018-02-10T01:06:12.082Z,96361.78
2018-02-10T01:07:50.687Z,96355.74
2018-02-10T01:09:28.803Z,96360.54
2018-02-10T01:11:05.872Z,96292.00
2018-02-10T01:12:43.156Z,96271.20
2018-02-10T01:14:20.785Z,96269.58
2018-02-10T01:15:58.541Z,96289.41
2018-02-10T01:17:36.437Z,96302.83
2018-02-10T01:19:14.040Z,96408.90
2018-02-10T01:20:51.679Z,96447.80
2018-02-10T01:22:28.942Z,96398.98
2018-02-10T01:24:06.247Z,96294.09
2018-02-10T01:25:45.641Z,96395.59
2018-02-10T01:27:24.191Z,96453.02
2018-02-10T01:29:01.052Z,96469.92
2018-02-10T01:30:39.840Z,96492.42
2018-02-10T01:32:17.947Z,96432.66
2018-02-10T01:33:54.704Z,96438.73
2018-02-10T01:35:31.200Z,96456.08
2018-02-10T01:37:09.304Z,96514.88
2018-02-10T01:38:47.073Z,96455.57
2018-02-10T01:40:25.140Z,96264.44
2018-02-10T01:42:02.025Z,96229.42
2018-02-10T01:43:41.128Z,96080.21
2018-02-10T01:45:21.435Z,96163.88
2018-02-10T01:46:58.228Z,96342.94
2018-02-10T01:48:37.428Z,96482.39
2018-02-10T01:50:23.325Z,96579.63
2018-02-10T01:52:00.720Z,96569.33
2018-02-10T01:53:37.644Z,96548.48
2018-02-10T01:55:14.633Z,96548.06
2018-02-10T01:56:51.035Z,96540.36
2018-02-10T01:58:28.507Z,96606.91
2018-02-10T02:00:06.293Z,96661.00
2018-02-10T02:01:43.988Z,96683.94
2018-02-10T02:03:21.262Z,96558.98
2018-02-10T02:04:59.077Z,96535.48
2018-02-10T02:06:36.041Z,96555.03
2018-02-10T02:08:14.921Z,96516.05
2018-02-10T02:09:51.271Z,96326.11
2018-02-10T02:11:27.820Z,96427.52
2018-02-10T02:13:06.762Z,96568.89
2018-02-10T02:14:44.984Z,96637.20
2018-02-10T02:16:21.720Z,96539.43
2018-02-10T02:17:59.017Z,96508.84
2018-02-10T02:19:35.417Z,96564.09
2018-02-10T02:21:11.647Z,96568.86
2018-02-10T02:22:48.676Z,96649.79
2018-02-10T02:24:27.973Z,96670.92
2018-02-10T02:26:04.628Z,96688.31
2018-02-10T02:27:40.937Z,96689.02
2018-02-10T02:29:17.380Z,96706.84
2018-02-10T02:30:54.438Z,96711.27
2018-02-10T02:32:31.199Z,96719.95
2018-02-10T02:34:07.948Z,96645.45
2018-02-10T02:35:44.236Z,96563.39
2018-02-10T02:37:24.449Z,96358.59
2018-02-10T02:39:02.604Z,96129.84
2018-02-10T02:40:41.816Z,95983.78
2018-02-10T02:42:18.744Z,95872.29
2018-02-10T02:43:56.268Z,95732.02
2018-02-10T02:45:32.772Z,95679.59
2018-02-10T02:47:09.191Z,95683.44
2018-02-10T02:48:46.674Z,95770.25
2018-02-10T02:50:26.354Z,95836.89
2018-02-10T02:52:03.159Z,95855.36
2018-02-10T02:53:39.593Z,95800.81
2018-02-10T02:55:15.896Z,95884.70
2018-02-10T02:56:53.458Z,96093.69
2018-02-10T02:58:29.717Z,96077.66
2018-02-10T03:00:06.443Z,96042.80
2018-02-10T03:01:42.948Z,96024.69
2018-02-10T03:03:20.683Z,95939.83
2018-02-10T03:04:57.255Z,96091.48
2018-02-10T03:06:33.595Z,96290.41
2018-02-10T03:08:10.925Z,96404.67
2018-02-10T03:09:48.448Z,96470.00
2018-02-10T03:11:24.812Z,96573.23
2018-02-10T03:13:01.487Z,96623.44
2018-02-10T03:14:37.810Z,96644.20
2018-02-10T03:16:16.261Z,96678.78
2018-02-10T03:17:52.612Z,96649.79
2018-02-10T03:19:28.835Z,96633.43
2018-02-10T03:21:05.314Z,96535.59
2018-02-10T03:22:42.028Z,96529.16
2018-02-10T03:24:19.240Z,96549.49
2018-02-10T03:25:57.495Z,96589.80
2018-02-10T03:27:33.856Z,96604.45
2018-02-10T03:29:11.249Z,96634.75
2018-02-10T03:30:47.963Z,96677.50
2018-02-10T03:32:24.810Z,96695.25
2018-02-10T03:34:01.787Z,96668.47
2018-02-10T03:35:38.802Z,96589.62
2018-02-10T03:37:15.084Z,96623.13
2018-02-10T03:38:51.518Z,96631.69
2018-02-10T03:40:28.511Z,96684.02
2018-02-10T03:42:06.554Z,96593.61
2018-02-10T03:43:44.270Z,96633.47
2018-02-10T03:45:20.887Z,96703.16
2018-02-10T03:47:00.134Z,96679.31
2018-02-10T03:48:37.063Z,96725.25
2018-02-10T03:50:13.716Z,96773.22
2018-02-10T03:51:50.303Z,96795.26
2018-02-10T03:53:28.064Z,96777.06
2018-02-10T03:55:06.110Z,96710.02
2018-02-10T03:56:43.108Z,96706.57
2018-02-10T03:58:19.324Z,96697.50
2018-02-10T03:59:55.600Z,96692.69
2018-02-10T04:01:32.653Z,96621.38
2018-02-10T04:03:10.609Z,96557.34
2018-02-10T04:04:47.495Z,96473.06
2018-02-10T04:06:24.270Z,96516.38
2018-02-10T04:08:01.723Z,96186.48
2018-02-10T04:09:39.290Z,96244.68
2018-02-10T04:11:17.345Z,96220.98
2018-02-10T04:12:53.781Z,96155.38
2018-02-10T04:14:31.542Z,96224.51
2018-02-10T04:16:07.922Z,96336.20
2018-02-10T04:17:45.139Z,96347.45
2018-02-10T04:19:21.476Z,96480.80
2018-02-10T04:20:58.254Z,96472.63
2018-02-10T04:22:34.539Z,96533.61
2018-02-10T04:24:10.928Z,96512.86
2018-02-10T04:25:47.627Z,96433.34
2018-02-10T04:27:26.814Z,96447.23
2018-02-10T04:29:03.886Z,96429.05
2018-02-10T04:30:40.488Z,96451.96
2018-02-10T04:32:17.704Z,96402.27
2018-02-10T04:33:54.517Z,96375.53
2018-02-10T04:35:31.176Z,96351.25
2018-02-10T04:37:07.444Z,96349.23
2018-02-10T04:38:43.899Z,96414.84
2018-02-10T04:40:21.303Z,96571.28
2018-02-10T04:41:57.557Z,96633.55
2018-02-10T04:43:33.916Z,96733.47
2018-02-10T04:45:10.244Z,96772.91
2018-02-10T04:46:47.333Z,96776.25
2018-02-10T04:48:23.706Z,96839.58
2018-02-10T04:50:00.403Z,96851.69
2018-02-10T04:51:36.731Z,96794.08
2018-02-10T04:53:13.451Z,96743.83
2018-02-10T04:54:50.569Z,96733.97
2018-02-10T04:56:26.815Z,96791.95
2018-02-10T04:58:04.284Z,96847.34
2018-02-10T04:59:41.775Z,96863.02
2018-02-10T05:01:19.246Z,96899.37
2018-02-10T05:02:55.569Z,96884.63
2018-02-10T05:04:31.821Z,96885.95
2018-02-10T05:06:15.083Z,96887.23
2018-02-10T05:07:51.573Z,96843.07
2018-02-10T05:09:29.123Z,96798.89
2018-02-10T05:11:05.540Z,96797.22
2018-02-10T05:12:42.073Z,96799.31
2018-02-10T05:14:18.396Z,96781.62
2018-02-10T05:15:55.074Z,96778.59
2018-02-10T05:17:32.154Z,96784.19
2018-02-10T05:19:08.969Z,96800.67
2018-02-10T05:20:45.836Z,96750.88
2018-02-10T05:22:22.177Z,96755.53
2018-02-10T05:24:00.130Z,96762.19
2018-02-10T05:25:37.770Z,96812.84
2018-02-10T05:27:14.923Z,96807.54
2018-02-10T05:28:53.460Z,96735.78
2018-02-10T05:30:31.228Z,96767.78
2018-02-10T05:33:42.419Z,96615.98
2018-02-10T05:35:20.489Z,96732.80
2018-02-10T05:36:56.913Z,96747.39
2018-02-10T05:38:33.726Z,96761.34
2018-02-10T05:40:10.492Z,96630.17
2018-02-10T05:41:47.376Z,96574.80
2018-02-10T05:43:23.869Z,96594.29
2018-02-10T05:45:00.583Z,96510.02
2018-02-10T05:46:36.935Z,96651.12
2018-02-10T05:48:13.300Z,96771.30
2018-02-10T05:49:50.372Z,96845.31
2018-02-10T05:51:27.202Z,96873.48
2018-02-10T05:53:03.729Z,96875.66
2018-02-10T05:54:40.112Z,96835.02
2018-02-10T05:56:16.497Z,96874.77
2018-02-10T05:57:56.727Z,96905.55
2018-02-10T05:59:34.363Z,96916.69
2018-02-10T06:01:10.819Z,96927.59
2018-02-10T06:02:47.147Z,96916.80
2018-02-10T06:04:23.759Z,96912.91
2018-02-10T06:06:00.019Z,96864.37
2018-02-10T06:07:36.270Z,96864.41
2018-02-10T06:09:12.771Z,96842.29
2018-02-10T06:10:49.595Z,96867.04
2018-02-10T06:12:26.403Z,96837.23
2018-02-10T06:14:02.656Z,96802.17
2018-02-10T06:15:39.297Z,96751.41
2018-02-10T06:17:16.223Z,96850.63
2018-02-10T06:18:52.426Z,96904.33
2018-02-10T06:20:29.604Z,96870.84
2018-02-10T06:22:05.916Z,96798.17
2018-02-10T06:23:42.584Z,96809.46
2018-02-10T06:25:18.847Z,96824.59
2018-02-10T06:26:55.109Z,96813.30
2018-02-10T06:28:31.414Z,96713.72
2018-02-10T06:30:08.208Z,96638.45
2018-02-10T06:31:44.479Z,96555.91
2018-02-10T06:33:20.708Z,96533.83
2018-02-10T06:34:57.034Z,96518.77
2018-02-10T06:36:33.564Z,96651.12
2018-02-10T06:38:09.899Z,96740.63
2018-02-10T06:39:46.231Z,96821.14
2018-02-10T06:41:22.582Z,96804.77
2018-02-10T06:42:58.869Z,96836.77
2018-02-10T06:44:35.160Z,96854.89
2018-02-10T06:46:11.496Z,96825.91
2018-02-10T06:47:47.761Z,96769.70
2018-02-10T06:49:24.068Z,96739.31
2018-02-10T06:51:00.314Z,96731.45
2018-02-10T06:52:36.695Z,96749.27
2018-02-10T06:54:13.618Z,96753.97
2018-02-10T06:55:49.951Z,96753.19
2018-02-10T06:57:27.045Z,96745.43
2018-02-10T06:59:03.232Z,96749.23
2018-02-10T07:00:40.413Z,96742.27
2018-02-10T07:02:17.676Z,96732.33
2018-02-10T07:03:54.406Z,96749.81
2018-02-10T07:05:31.436Z,96768.34
2018-02-10T07:07:08.074Z,96738.49
2018-02-10T07:08:44.433Z,96773.02
2018-02-10T07:10:20.942Z,96783.44
2018-02-10T07:11:57.223Z,96740.23
2018-02-10T07:13:33.875Z,96695.66
2018-02-10T07:15:10.240Z,96796.11
2018-02-10T07:16:49.138Z,96873.63
2018-02-10T07:18:25.371Z,96819.11
2018-02-10T07:20:02.904Z,96899.20
2018-02-10T07:21:40.052Z,96945.94
2018-02-10T07:23:16.503Z,96983.64
2018-02-10T07:24:52.773Z,97022.64
2018-02-10T07:26:29.593Z,97026.98
2018-02-10T07:28:05.859Z,97034.40
2018-02-10T07:29:42.175Z,96992.30
2018-02-10T07:31:18.522Z,97033.05
2018-02-10T07:32:56.100Z,97078.22
2018-02-10T07:34:33.805Z,97080.75
2018-02-10T07:36:10.288Z,97070.80
2018-02-10T07:37:46.605Z,97041.34
2018-02-10T07:39:24.163Z,96886.20
2018-02-10T07:41:00.431Z,96832.89
2018-02-10T07:42:36.709Z,96903.52
2018-02-10T07:44:13.320Z,96915.20
2018-02-10T07:45:50.101Z,96738.10
2018-02-10T07:47:27.149Z,96647.67
2018-02-10T07:49:04.291Z,96496.31
2018-02-10T07:50:40.623Z,96620.03
2018-02-10T07:52:17.513Z,96717.71
2018-02-10T07:53:53.831Z,96803.05
2018-02-10T07:55:30.190Z,96828.58
2018-02-10T07:57:06.580Z,96850.30
2018-02-10T07:58:43.333Z,96856.32
2018-02-10T08:00:20.431Z,96833.81
2018-02-10T08:01:56.864Z,96825.95
2018-02-10T08:03:34.104Z,96818.69
2018-02-10T08:05:11.147Z,96791.34
2018-02-10T08:06:47.557Z,96773.19
2018-02-10T08:08:24.506Z,96771.91
2018-02-10T08:10:00.824Z,96762.77
2018-02-10T08:11:37.805Z,96711.70
2018-02-10T08:13:19.113Z,96681.42
2018-02-10T08:15:04.933Z,96653.29
2018-02-10T08:16:41.383Z,96595.30
2018-02-10T08:18:18.862Z,96578.02
2018-02-10T08:19:55.219Z,96582.73
2018-02-10T08:21:31.790Z,96615.31
2018-02-10T08:23:08.119Z,96621.71
2018-02-10T08:24:45.053Z,96652.01
2018-02-10T08:26:22.066Z,96700.06
2018-02-10T08:27:58.635Z,96687.12
2018-02-10T08:29:34.979Z,96671.04
2018-02-10T08:31:12.702Z,96673.70
2018-02-10T08:32:49.113Z,96669.80
2018-02-10T08:34:25.900Z,96651.16
2018-02-10T08:36:03.022Z,96664.53
2018-02-10T08:37:39.785Z,96680.53
2018-02-10T08:39:17.324Z,96622.99
2018-02-10T08:40:53.646Z,96637.75
2018-02-10T08:42:29.970Z,96642.98
2018-02-10T08:44:06.318Z,96608.77
2018-02-10T08:45:43.026Z,96593.63
2018-02-10T08:47:20.181Z,96619.19
2018-02-10T08:48:57.679Z,96623.91
2018-02-10T08:50:34.404Z,96619.12
2018-02-10T08:52:11.692Z,96620.54
2018-02-10T08:53:48.232Z,96650.88
2018-02-10T08:55:25.239Z,96710.95
2018-02-10T08:57:03.487Z,96723.48
2018-02-10T08:58:39.956Z,96684.09
2018-02-10T09:00:18.145Z,96654.72
2018-02-10T09:01:54.491Z,96652.09
2018-02-10T09:03:31.298Z,96640.81
2018-02-10T09:05:07.798Z,96650.77
2018-02-10T09:06:44.150Z,96641.27
2018-02-10T09:08:20.543Z,96700.53
2018-02-10T09:11:42.108Z,96796.22
2018-02-10T09:13:19.661Z,96811.35
2018-02-10T09:14:57.782Z,96813.06
2018-02-10T09:16:35.719Z,96805.73
2018-02-10T09:18:13.011Z,96814.02
2018-02-10T09:19:49.324Z,96801.38
2018-02-10T09:21:25.612Z,96797.08
2018-02-10T09:23:02.246Z,96772.80
2018-02-10T09:24:39.300Z,96766.25
2018-02-10T09:26:16.072Z,96752.02
2018-02-10T09:27:52.349Z,96748.56
2018-02-10T09:29:30.506Z,96775.86
2018-02-10T09:31:07.108Z,96754.22
2018-02-10T09:32:43.552Z,96774.97
2018-02-10T09:34:20.206Z,96813.13
2018-02-10T09:35:57.170Z,96840.44
2018-02-10T09:37:34.275Z,96823.52
2018-02-10T09:39:10.552Z,96766.75
2018-02-10T09:40:46.823Z,96741.23
2018-02-10T09:42:23.155Z,96810.64
2018-02-10T09:43:59.965Z,96922.35
2018-02-10T09:45:36.400Z,96959.98
2018-02-10T09:47:13.701Z,97000.75
2018-02-10T09:48:51.362Z,96920.14
2018-02-10T09:50:29.836Z,96896.31
2018-02-10T09:52:06.896Z,96974.70
2018-02-10T09:53:44.083Z,97029.37
2018-02-10T09:55:21.078Z,97057.07
2018-02-10T09:56:58.166Z,97065.80
2018-02-10T09:58:35.394Z,97073.19
2018-02-10T10:00:12.349Z,97039.75
2018-02-10T10:01:49.398Z,96991.66
2018-02-10T10:03:25.724Z,96996.44
2018-02-10T10:05:02.004Z,97007.23
2018-02-10T10:06:39.015Z,97018.11
2018-02-10T10:08:29.007Z,97023.73
2018-02-10T10:10:05.361Z,97052.36
2018-02-10T10:11:43.034Z,97032.93
2018-02-10T10:13:19.534Z,97057.64
2018-02-10T10:14:56.215Z,97064.91
2018-02-10T10:16:33.345Z,97055.00
2018-02-10T10:18:10.443Z,97044.55
2018-02-10T10:19:47.055Z,97045.05
2018-02-10T10:21:23.350Z,97073.22
2018-02-10T10:22:59.624Z,97100.14
2018-02-10T10:24:41.660Z,97107.13
2018-02-10T10:26:19.316Z,97076.68
2018-02-10T10:27:57.233Z,97075.43
2018-02-10T10:29:33.639Z,97063.23
2018-02-10T10:31:10.159Z,97068.02
2018-02-10T10:32:47.854Z,96989.09
2018-02-10T10:34:24.267Z,96929.30
2018-02-10T10:36:00.661Z,96857.03
2018-02-10T10:37:37.070Z,96909.84
2018-02-10T10:39:13.379Z,97040.31
2018-02-10T10:40:50.436Z,97089.73
2018-02-10T10:42:27.753Z,97137.41
2018-02-10T10:44:05.121Z,97134.78
2018-02-10T10:45:42.300Z,96979.15
2018-02-10T10:47:18.716Z,96837.95
2018-02-10T10:48:55.040Z,96914.23
2018-02-10T10:50:31.940Z,97019.88
2018-02-10T10:52:08.199Z,97061.16
2018-02-10T10:53:45.337Z,97089.23
2018-02-10T10:55:27.150Z,97095.76
2018-02-10T10:57:04.281Z,97113.52
2018-02-10T10:58:41.416Z,97142.66
2018-02-10T11:00:24.933Z,97160.42
2018-02-10T11:02:03.070Z,97143.98
2018-02-10T11:03:40.087Z,97199.20
2018-02-10T11:05:16.468Z,97223.91
2018-02-10T11:06:54.733Z,97189.50
2018-02-10T11:08:31.862Z,97164.38
2018-02-10T11:10:08.806Z,97184.79
2018-02-10T11:11:46.324Z,97119.69
2018-02-10T11:13:22.808Z,97124.50
2018-02-10T11:14:59.143Z,97100.18
2018-02-10T11:16:35.889Z,97151.36
2018-02-10T11:18:12.200Z,97140.98
2018-02-10T11:19:48.630Z,97155.64
2018-02-10T11:21:25.016Z,97195.64
2018-02-10T11:23:01.701Z,97240.00
2018-02-10T11:24:38.133Z,97277.30
2018-02-10T11:26:15.515Z,97274.27
2018-02-10T11:27:52.612Z,97210.38
2018-02-10T11:29:30.815Z,97224.36
2018-02-10T11:31:07.321Z,97302.55
2018-02-10T11:32:43.635Z,97334.69
2018-02-10T11:34:20.708Z,97332.47
2018-02-10T11:35:58.152Z,97185.72
2018-02-10T11:37:34.626Z,97171.38
2018-02-10T11:39:11.798Z,97186.67
2018-02-10T11:40:48.093Z,97271.33
2018-02-10T11:42:24.979Z,97276.02
2018-02-10T11:44:02.328Z,97290.44
2018-02-10T11:45:38.684Z,97349.47
2018-02-10T11:47:15.288Z,97325.02
2018-02-10T11:48:56.492Z,97251.81
2018-02-10T11:50:32.763Z,97267.02
2018-02-10T11:52:09.034Z,97195.38
2018-02-10T11:53:45.413Z,97294.36
2018-02-10T11:55:22.202Z,97334.72
2018-02-10T11:56:59.873Z,97133.27
2018-02-10T11:58:36.547Z,97046.51
2018-02-10T12:00:13.202Z,97085.55
2018-02-10T12:01:53.754Z,97149.72
2018-02-10T12:03:30.355Z,97284.36
2018-02-10T12:05:06.732Z,97331.25
2018-02-10T12:06:43.973Z,97354.69
2018-02-10T12:08:21.533Z,97328.61
2018-02-10T12:09:58.144Z,97344.72
2018-02-10T12:11:34.687Z,97314.29
2018-02-10T12:13:11.009Z,97310.86
2018-02-10T12:14:47.724Z,97257.84
2018-02-10T12:16:24.372Z,97095.04
2018-02-10T12:18:01.341Z,97179.30
2018-02-10T12:19:37.657Z,97249.66
2018-02-10T12:21:14.420Z,97312.94
2018-02-10T12:22:50.804Z,97344.75
2018-02-10T12:24:29.587Z,97204.45
2018-02-10T12:27:37.360Z,97224.44
2018-02-10T12:29:13.652Z,97108.52
2018-02-10T12:30:50.988Z,97007.08
2018-02-10T12:32:27.245Z,96968.48
2018-02-10T12:34:03.685Z,97000.53
2018-02-10T12:35:40.098Z,96979.32
2018-02-10T12:37:16.441Z,97088.62
2018-02-10T12:38:53.620Z,97250.91
2018-02-10T12:40:30.780Z,97338.68
2018-02-10T12:42:09.402Z,97331.22
2018-02-10T12:43:45.827Z,97236.20
2018-02-10T12:45:22.637Z,97211.37
2018-02-10T12:47:02.433Z,97168.52
2018-02-10T12:48:43.652Z,97204.52
2018-02-10T12:50:20.720Z,97289.55
2018-02-10T12:51:57.886Z,97416.09
2018-02-10T12:53:34.850Z,97479.06
2018-02-10T12:55:11.711Z,97477.34
2018-02-10T12:56:48.060Z,97436.16
2018-02-10T12:58:27.899Z,97498.31
2018-02-10T13:00:05.635Z,97423.15
2018-02-10T13:01:42.917Z,97396.14
2018-02-10T13:03:20.156Z,97434.38
2018-02-10T13:04:56.720Z,97446.99
2018-02-10T13:32:49.550Z,96789.31
2018-02-10T13:34:26.103Z,96887.05
2018-02-10T13:36:02.562Z,97057.91
2018-02-10T13:37:42.079Z,97062.30
2018-02-10T13:39:22.642Z,97021.02
2018-02-10T13:41:08.798Z,97155.06
2018-02-10T13:42:46.986Z,97220.61
2018-02-10T13:44:23.983Z,97195.52
2018-02-10T13:46:02.956Z,97292.25
2018-02-10T13:47:40.395Z,97379.67
2018-02-10T13:49:16.820Z,97471.73
2018-02-10T13:50:53.298Z,97466.97
2018-02-10T13:52:31.238Z,97577.02
2018-02-10T13:54:07.978Z,97627.00
2018-02-10T13:55:44.479Z,97604.95
2018-02-10T13:57:21.131Z,97434.80
2018-02-10T13:58:58.197Z,97507.47
2018-02-10T14:00:35.094Z,97567.02
2018-02-10T14:02:11.544Z,97533.07
2018-02-10T14:03:49.824Z,97522.20
2018-02-10T14:07:36.270Z,97524.41
2018-02-10T14:09:14.841Z,97423.58
2018-02-10T14:10:51.833Z,97316.31
2018-02-10T14:12:40.174Z,97363.20
2018-02-10T14:14:17.606Z,97237.59
2018-02-10T14:15:54.550Z,97245.55
2018-02-10T14:17:32.698Z,97329.67
2018-02-10T14:19:14.628Z,97280.61
2018-02-10T14:20:51.913Z,97226.84
2018-02-10T14:22:28.751Z,97231.17
2018-02-10T14:24:06.030Z,97211.61
2018-02-10T14:25:42.632Z,97351.02
2018-02-10T14:27:19.078Z,97494.45
2018-02-10T14:28:57.000Z,97630.64
2018-02-10T14:30:33.510Z,97641.02
2018-02-10T14:32:21.996Z,97613.61
2018-02-10T14:33:58.984Z,97524.45
2018-02-10T14:35:37.453Z,97557.98
2018-02-10T14:37:22.794Z,97427.91
2018-02-10T14:39:00.912Z,97261.14
2018-02-10T14:40:38.055Z,97351.05
2018-02-10T14:42:15.255Z,97351.91
2018-02-10T14:43:52.652Z,97213.29
2018-02-10T14:45:30.706Z,97322.80
2018-02-10T14:47:07.649Z,97378.02
2018-02-10T14:48:46.729Z,97236.80
2018-02-10T14:50:23.984Z,97237.27
2018-02-10T14:52:00.885Z,97321.55
2018-02-10T14:53:38.704Z,97401.98
2018-02-10T14:55:15.188Z,97347.98
2018-02-10T14:56:52.421Z,97424.97
2018-02-10T14:58:28.992Z,97498.02
2018-02-10T15:00:06.094Z,97532.31
2018-02-10T15:01:44.274Z,97509.71
2018-02-10T15:03:21.032Z,97551.58
2018-02-10T15:05:04.976Z,97503.20
2018-02-10T15:07:03.916Z,97452.44
2018-02-10T15:08:42.091Z,97457.59
2018-02-10T15:10:18.501Z,97479.32
2018-02-10T15:11:54.920Z,97610.73
2018-02-10T15:13:33.414Z,97592.88
2018-02-10T15:15:09.896Z,97693.89
2018-02-10T15:16:46.734Z,97631.59
2018-02-10T15:18:28.488Z,97706.03
2018-02-10T15:20:05.756Z,97719.06
2018-02-10T15:21:42.527Z,97693.42
2018-02-10T15:23:18.992Z,97567.67
2018-02-10T15:24:55.589Z,97352.88
2018-02-10T15:26:34.222Z,97395.91
2018-02-10T15:28:10.527Z,97418.53
2018-02-10T15:30:00.034Z,97527.65
2018-02-10T15:31:49.619Z,97624.72
2018-02-10T15:34:43.368Z,97641.67
2018-02-10T15:36:22.263Z,97463.37
2018-02-10T15:37:58.930Z,97509.38
2018-02-10T15:39:35.863Z,97496.80
2018-02-10T15:41:12.400Z,97405.88
2018-02-10T15:42:49.218Z,97313.05
2018-02-10T15:44:25.551Z,97466.80
2018-02-10T15:46:02.637Z,97515.43
2018-02-10T15:47:39.001Z,97365.08
2018-02-10T15:49:15.582Z,97394.23
2018-02-10T15:50:52.370Z,97505.95
2018-02-10T15:52:29.871Z,97582.11
2018-02-10T15:54:06.627Z,97632.58
2018-02-10T15:55:43.810Z,97660.81
2018-02-10T15:57:22.000Z,97659.53
2018-02-10T15:58:58.906Z,97629.91
2018-02-10T16:00:36.031Z,97685.25
2018-02-10T16:02:12.784Z,97728.78
2018-02-10T16:03:49.280Z,97602.10
2018-02-10T17:23:24.740Z,96182.83
2018-02-10T17:25:06.146Z,96348.97
2018-02-10T17:27:01.699Z,96458.19
2018-02-10T17:28:39.249Z,96584.41
2018-02-10T17:30:17.252Z,96664.01
2018-02-10T17:31:53.963Z,96725.98
2018-02-10T17:33:30.362Z,96740.14
2018-02-10T17:35:08.856Z,96774.83
2018-02-10T17:36:45.386Z,96821.17
2018-02-10T17:38:21.924Z,96887.44
2018-02-10T17:39:58.324Z,96916.33
2018-02-10T17:41:35.517Z,96919.03
2018-02-10T17:43:11.976Z,96946.75
2018-02-10T17:44:49.740Z,96955.02
2018-02-10T17:46:26.496Z,96958.90
2018-02-10T17:48:06.494Z,96962.42
2018-02-10T17:49:45.324Z,97007.07
2018-02-10T17:51:28.368Z,97020.08
2018-02-10T17:53:06.225Z,97016.23
2018-02-10T17:54:43.036Z,97011.34
2018-02-10T17:56:19.520Z,96994.09
2018-02-10T17:57:55.879Z,97017.45
2018-02-10T17:59:32.288Z,97004.44
2018-02-10T18:01:09.691Z,96983.16
2018-02-10T18:02:46.802Z,96966.80
2018-02-10T18:04:23.287Z,96928.19
2018-02-10T18:06:00.357Z,96911.38
2018-02-10T18:07:37.514Z,96885.27
2018-02-10T18:09:14.445Z,96878.81
2018-02-10T18:10:51.571Z,96861.48
2018-02-10T18:12:28.178Z,96882.34
2018-02-10T18:14:06.009Z,96881.95
2018-02-10T18:15:43.153Z,96894.06
2018-02-10T18:17:23.662Z,96893.14
2018-02-10T18:19:00.812Z,96899.58
2018-02-10T18:20:38.264Z,96899.19
2018-02-10T18:22:15.597Z,96896.16
2018-02-10T18:23:52.963Z,96852.83
2018-02-10T18:25:30.668Z,96836.02
2018-02-10T18:27:08.038Z,96823.45
2018-02-10T18:28:44.999Z,96826.91
2018-02-10T18:30:22.197Z,96817.44
2018-02-10T18:32:02.946Z,96793.98
2018-02-10T18:33:40.932Z,96802.70
2018-02-10T18:35:18.361Z,96816.12
2018-02-10T18:36:55.443Z,96810.49
2018-02-10T18:38:32.433Z,96813.95
2018-02-10T18:40:09.321Z,96751.63
2018-02-10T18:41:46.378Z,96801.81
2018-02-10T18:43:23.630Z,96808.78
2018-02-10T18:45:00.606Z,96806.12
2018-02-10T18:46:37.933Z,96793.19
2018-02-10T18:48:15.149Z,96754.22
2018-02-10T18:49:52.243Z,96750.34
2018-02-10T18:51:29.157Z,96727.72
2018-02-10T18:53:05.981Z,96692.28
2018-02-10T18:54:43.877Z,96666.32
2018-02-10T18:56:20.971Z,96639.58
2018-02-10T18:57:59.020Z,96601.89
2018-02-10T18:59:36.874Z,96587.22
2018-02-10T19:01:13.898Z,96611.92
2018-02-10T19:02:50.758Z,96556.47
2018-02-10T19:04:28.695Z,96549.14
2018-02-10T19:06:06.212Z,96555.80
2018-02-10T19:07:43.959Z,96519.30
2018-02-10T19:09:20.390Z,96530.98
2018-02-10T19:10:57.303Z,96529.67
2018-02-10T19:12:34.782Z,96544.00
2018-02-10T19:14:11.260Z,96519.30
2018-02-10T19:15:48.469Z,96527.15
2018-02-10T19:17:25.561Z,96524.98
2018-02-10T19:19:03.756Z,96520.19
2018-02-10T19:20:40.862Z,96548.30
2018-02-10T19:22:18.527Z,96566.49
2018-02-10T19:23:55.498Z,96591.98
2018-02-10T19:25:33.104Z,96623.05
2018-02-10T19:27:10.145Z,96647.30
2018-02-10T19:28:46.576Z,96634.35
2018-02-10T19:30:25.730Z,96651.24
2018-02-10T19:32:03.662Z,96665.94
2018-02-10T19:33:40.166Z,96671.09
2018-02-10T19:35:17.173Z,96696.27
2018-02-10T19:36:54.605Z,96734.41
2018-02-10T19:38:32.163Z,96779.81
2018-02-10T19:40:09.326Z,96768.06
2018-02-10T19:41:46.353Z,96745.16
2018-02-10T19:43:23.553Z,96778.14
2018-02-10T19:45:00.418Z,96791.09
2018-02-10T19:46:38.415Z,96776.79
2018-02-10T19:48:15.355Z,96772.88
2018-02-10T19:49:52.827Z,96761.16
2018-02-10T19:51:31.836Z,96760.31
2018-02-10T19:53:08.795Z,96741.73
2018-02-10T19:54:45.867Z,96742.16
2018-02-10T19:56:23.308Z,96745.69
2018-02-10T19:58:00.338Z,96742.12
2018-02-10T19:59:37.976Z,96726.16
2018-02-10T20:01:15.124Z,96712.77
2018-02-10T20:02:51.718Z,96720.56
2018-02-10T20:04:29.970Z,96703.20
2018-02-10T20:06:06.460Z,96679.45
2018-02-10T20:07:43.821Z,96585.94
2018-02-10T20:09:21.558Z,96601.51
2018-02-10T20:10:58.997Z,96582.52
2018-02-10T20:12:36.141Z,96594.64
2018-02-10T20:14:13.095Z,96594.29
2018-02-10T20:15:50.313Z,96592.94
2018-02-10T20:17:28.233Z,96575.12
2018-02-10T20:19:05.205Z,96580.78
2018-02-10T20:20:42.095Z,96582.59
2018-02-10T20:22:18.755Z,96592.91
2018-02-10T20:23:56.263Z,96635.75
2018-02-10T20:25:33.309Z,96643.98
2018-02-10T20:27:10.575Z,96659.95
2018-02-10T20:28:47.574Z,96651.78
2018-02-10T20:30:27.252Z,96642.67
2018-02-10T20:32:05.080Z,96622.38
2018-02-10T20:33:42.262Z,96608.52
2018-02-10T20:35:18.845Z,96574.31
2018-02-10T20:36:57.066Z,96593.83
2018-02-10T20:38:34.286Z,96593.83
2018-02-10T20:40:12.206Z,96595.53
2018-02-10T20:41:48.674Z,96573.00
2018-02-10T20:43:26.209Z,96542.36
2018-02-10T20:45:03.942Z,96518.52
2018-02-10T20:46:40.835Z,96520.30
2018-02-10T20:48:17.876Z,96515.61
2018-02-10T20:49:56.157Z,96515.50
2018-02-10T20:51:32.552Z,96545.34
2018-02-10T20:53:09.581Z,96556.55
2018-02-10T20:54:46.516Z,96553.98
2018-02-10T20:56:23.903Z,96572.22